Time;durP1;ratioP1;P1;durP2;ratioP2;P2;SDS_P1;SDS_P2;PMS_P1;PMS_P2;Temp;Humidity;BMP_temperature;BMP_pressure;BME280_temperature;BME280_humidity;BME280_pressure;Samples;Min_cycle;Max_cycle;Signal;HPM_P1;HPM_P2
2022/09/01 00:00:13;;;;;;;0.20;0.20;;;;;;;7.10;97.31;100540.38;10576240;28;20040;-79
2022/09/01 00:05:15;;;;;;;0.00;0.00;;;;;;;7.06;97.43;100542.00;10588513;28;20418;-79
2022/09/01 00:10:18;;;;;;;0.10;0.10;;;;;;;6.99;97.42;100525.84;10573979;28;20494;-79
2022/09/01 00:15:20;;;;;;;0.60;0.25;;;;;;;6.90;97.46;100530.13;10581100;28;20044;-79
2022/09/01 00:20:22;;;;;;;0.20;0.20;;;;;;;6.87;97.64;100519.75;10573050;28;20168;-79
2022/09/01 00:25:26;;;;;;;0.10;0.10;;;;;;;6.93;98.07;100524.16;10573266;28;20044;-79
2022/09/01 00:30:29;;;;;;;0.35;0.20;;;;;;;6.97;98.51;100532.66;10578397;28;20032;-79
2022/09/01 00:35:31;;;;;;;0.77;0.20;;;;;;;6.90;97.91;100520.03;10580421;28;20044;-79
2022/09/01 00:40:33;;;;;;;0.00;0.00;;;;;;;6.85;98.18;100514.53;10584490;28;20043;-79
2022/09/01 00:45:36;;;;;;;0.32;0.00;;;;;;;6.81;98.52;100513.44;10588944;28;20044;-79
2022/09/01 00:50:38;;;;;;;0.35;0.35;;;;;;;6.86;98.30;100518.09;10577441;28;20121;-79
2022/09/01 00:55:40;;;;;;;0.30;0.20;;;;;;;6.84;99.04;100496.53;10520692;28;20039;-79
2022/09/01 01:00:45;;;;;;;1.58;0.13;;;;;;;6.87;99.13;100498.75;10532237;28;20118;-79
2022/09/01 01:05:53;;;;;;;0.28;0.17;;;;;;;6.87;99.88;100487.00;10572525;28;20044;-79
2022/09/01 01:10:55;;;;;;;0.10;0.10;;;;;;;6.87;99.19;100487.00;10555930;28;20043;-79
2022/09/01 01:15:58;;;;;;;0.20;0.10;;;;;;;6.80;99.83;100489.97;10593968;28;20513;-79
2022/09/01 01:26:24;;;;;;;0.20;0.20;;;;;;;6.72;98.93;100481.41;10567061;28;20051;-79
2022/09/01 01:31:26;;;;;;;0.28;0.15;;;;;;;6.70;99.01;100481.69;10579666;28;20040;-79
2022/09/01 01:36:32;;;;;;;1.15;0.10;;;;;;;6.69;98.83;100485.50;10595700;28;20048;-79
2022/09/01 01:41:41;;;;;;;;;;;;;;;6.72;98.42;100474.06;10571252;28;20533;-78
2022/09/01 01:46:46;;;;;;;1.00;0.20;;;;;;;6.64;98.66;100474.56;10587214;28;19945;-79
2022/09/01 01:51:55;;;;;;;1.33;0.40;;;;;;;6.63;98.90;100471.00;10592164;28;20051;-78
2022/09/01 01:57:03;;;;;;;0.10;0.10;;;;;;;6.63;98.03;100462.81;10543516;28;20417;-78
2022/09/01 02:02:08;;;;;;;0.10;0.10;;;;;;;6.61;99.04;100466.91;10592871;28;20046;-79
2022/09/01 02:07:12;;;;;;;0.03;0.03;;;;;;;6.61;98.79;100464.16;10573340;28;20529;-79
2022/09/01 02:12:17;;;;;;;0.00;0.00;;;;;;;6.65;97.94;100459.84;10565951;28;20040;-78
2022/09/01 02:17:21;;;;;;;0.20;0.20;;;;;;;6.56;98.23;100464.09;10573196;28;20047;-79
2022/09/01 02:22:24;;;;;;;0.10;0.10;;;;;;;6.54;98.03;100458.91;10551157;28;20043;-79
2022/09/01 02:27:28;;;;;;;0.45;0.20;;;;;;;6.56;98.86;100466.81;10563926;28;20036;-79
2022/09/01 02:32:31;;;;;;;0.05;0.05;;;;;;;6.55;98.08;100467.91;10571126;28;20041;-79
2022/09/01 02:37:33;;;;;;;0.30;0.20;;;;;;;6.54;98.21;100458.91;10566748;28;20052;-79
2022/09/01 02:42:39;;;;;;;0.20;0.20;;;;;;;6.51;98.47;100448.53;10574552;28;20418;-79
2022/09/01 02:47:47;;;;;;;0.15;0.15;;;;;;;6.45;98.84;100463.19;10570516;28;20047;-79
2022/09/01 02:52:51;;;;;;;0.05;0.05;;;;;;;6.45;98.42;100446.84;10536303;28;20036;-79
2022/09/01 02:57:55;;;;;;;0.10;0.10;;;;;;;6.50;98.76;100460.50;10553362;28;20135;-79
2022/09/01 03:02:59;;;;;;;0.10;0.10;;;;;;;6.51;98.29;100453.16;10571267;28;20044;-79
2022/09/01 03:08:06;;;;;;;0.50;0.10;;;;;;;6.56;98.03;100453.19;10546969;28;20036;-79
2022/09/01 03:13:19;;;;;;;0.10;0.10;;;;;;;6.57;98.34;100455.66;10571090;28;20524;-79
2022/09/01 03:18:21;;;;;;;0.30;0.10;;;;;;;6.59;99.01;100455.41;10551511;28;20042;-78
2022/09/01 03:23:24;;;;;;;0.22;0.10;;;;;;;6.62;99.04;100452.19;10580062;28;20649;-79
2022/09/01 03:28:26;;;;;;;0.43;0.20;;;;;;;6.66;98.82;100453.28;10573081;28;20036;-79
2022/09/01 03:33:29;;;;;;;1.33;0.20;;;;;;;6.63;99.29;100448.38;10546344;28;20042;-79
2022/09/01 03:38:32;;;;;;;1.08;0.20;;;;;;;6.64;99.40;100467.19;10559897;28;20034;-79
2022/09/01 03:43:38;;;;;;;0.90;0.20;;;;;;;6.64;98.99;100456.28;10549972;28;21634;-79
2022/09/01 03:48:41;;;;;;;0.55;0.10;;;;;;;6.66;98.76;100442.41;10566132;28;20056;-79
2022/09/01 03:53:44;;;;;;;0.20;0.20;;;;;;;6.73;99.21;100451.16;10573843;28;20047;-77
2022/09/01 03:58:47;;;;;;;0.38;0.13;;;;;;;6.71;98.84;100447.88;10569861;28;20036;-78
2022/09/01 04:03:52;;;;;;;0.10;0.10;;;;;;;6.76;98.96;100450.63;10557299;28;20046;-77
2022/09/01 04:09:01;;;;;;;0.75;0.13;;;;;;;6.73;98.85;100445.72;10561989;28;20043;-77
2022/09/01 04:14:06;;;;;;;0.67;0.20;;;;;;;6.79;99.10;100435.69;10550439;28;20040;-77
2022/09/01 04:19:19;;;;;;;0.80;0.15;;;;;;;6.85;98.81;100443.63;10610142;28;20043;-78
2022/09/01 04:24:23;;;;;;;0.40;0.10;;;;;;;6.89;98.75;100436.56;10542308;28;20055;-77
2022/09/01 04:34:54;;;;;;;;;;;;;;;7.03;98.53;100453.31;10568629;28;20039;-78
2022/09/01 04:39:56;;;;;;;0.60;0.10;;;;;;;7.06;98.18;100443.78;10573599;28;20009;-78
2022/09/01 04:45:00;;;;;;;0.20;0.10;;;;;;;7.01;98.47;100450.03;10576919;28;20040;-78
2022/09/01 04:50:13;;;;;;;0.38;0.30;;;;;;;7.08;98.19;100453.34;10610408;28;20048;-78
2022/09/01 04:55:39;;;;;;;0.32;0.10;;;;;;;7.17;97.87;100456.41;10560618;28;20036;-78
2022/09/01 05:00:48;;;;;;;0.10;0.00;;;;;;;7.19;97.71;100459.69;10557629;28;20055;-78
2022/09/01 05:05:53;;;;;;;0.20;0.20;;;;;;;7.21;97.52;100452.06;10573256;28;20035;-78
2022/09/01 05:10:55;;;;;;;0.15;0.15;;;;;;;7.20;97.40;100448.50;10556793;28;20421;-78
2022/09/01 05:16:18;;;;;;;1.23;0.20;;;;;;;7.19;96.34;100457.78;10570271;28;20040;-78
2022/09/01 05:21:25;;;;;;;0.10;0.10;;;;;;;7.23;96.82;100458.06;10571956;28;20052;-78
2022/09/01 05:26:30;;;;;;;1.65;0.40;;;;;;;7.28;96.63;100463.56;10545711;28;20056;-78
2022/09/01 05:31:33;;;;;;;0.10;0.10;;;;;;;7.28;96.66;100455.38;10571770;28;20044;-78
2022/09/01 05:36:42;;;;;;;0.38;0.30;;;;;;;7.28;96.81;100463.56;10572036;28;20048;-78
2022/09/01 05:41:44;;;;;;;0.13;0.13;;;;;;;7.29;97.11;100459.78;10572101;28;20047;-78
2022/09/01 05:46:48;;;;;;;0.45;0.32;;;;;;;7.33;97.00;100463.59;10572246;28;20524;-78
2022/09/01 05:51:57;;;;;;;0.30;0.20;;;;;;;7.34;97.56;100470.72;10571841;28;20409;-78
2022/09/01 05:57:01;;;;;;;0.28;0.28;;;;;;;7.37;97.20;100472.91;10555396;28;20036;-78
2022/09/01 06:02:07;;;;;;;0.47;0.30;;;;;;;7.42;97.56;100472.94;10554221;28;20040;-78
2022/09/01 06:07:14;;;;;;;0.30;0.20;;;;;;;7.49;96.77;100475.44;10555127;28;20060;-78
2022/09/01 06:12:22;;;;;;;1.17;0.47;;;;;;;7.47;96.75;100470.25;10555239;28;20044;-78
2022/09/01 06:17:25;;;;;;;0.60;0.40;;;;;;;7.47;96.85;100477.63;10554785;28;20036;-78
2022/09/01 06:22:30;;;;;;;0.40;0.15;;;;;;;7.47;96.03;100470.25;10600590;28;20050;-78
2022/09/01 06:27:37;;;;;;;0.68;0.20;;;;;;;7.45;95.90;100482.50;10576425;28;20044;-78
2022/09/01 06:32:42;;;;;;;0.25;0.22;;;;;;;7.42;95.65;100472.94;10570893;28;20048;-78
2022/09/01 06:37:47;;;;;;;0.25;0.20;;;;;;;7.44;95.62;100489.84;10536288;28;20539;-78
2022/09/01 06:43:06;;;;;;;0.20;0.20;;;;;;;7.45;95.93;100483.31;10556404;28;20043;-78
2022/09/01 06:48:15;;;;;;;0.40;0.20;;;;;;;7.44;95.96;100469.94;10550870;28;20072;-78
2022/09/01 06:53:17;;;;;;;0.10;0.10;;;;;;;7.48;95.74;100482.81;10550576;28;20040;-78
2022/09/01 06:58:22;;;;;;;0.00;0.00;;;;;;;7.53;94.98;100492.94;10568856;28;20035;-78
2022/09/01 07:03:26;;;;;;;0.40;0.13;;;;;;;7.55;95.20;100488.84;10553342;28;20048;-78
2022/09/01 07:09:07;;;;;;;0.10;0.10;;;;;;;7.61;94.45;100499.78;10522136;28;20055;-78
2022/09/01 07:14:10;;;;;;;2.05;0.28;;;;;;;7.58;94.32;100514.78;10527427;28;20438;-78
2022/09/01 07:19:13;;;;;;;2.08;0.30;;;;;;;7.57;93.39;100518.59;10557737;28;20039;-77
2022/09/01 07:24:44;;;;;;;1.00;0.28;;;;;;;7.59;93.26;100515.63;10559272;28;20051;-78
2022/09/01 07:30:21;;;;;;;1.38;0.50;;;;;;;7.60;93.10;100506.34;10515716;28;20051;-78
2022/09/01 07:35:23;;;;;;;0.32;0.20;;;;;;;7.59;92.40;100530.09;10521402;28;20044;-78
2022/09/01 07:40:27;;;;;;;0.15;0.15;;;;;;;7.62;91.43;100521.38;10575583;28;20051;-78
2022/09/01 07:45:50;;;;;;;0.52;0.40;;;;;;;7.58;91.27;100525.72;10578858;28;20413;-78
2022/09/01 07:50:55;;;;;;;0.65;0.20;;;;;;;7.55;90.72;100529.81;10557105;28;20047;-77
2022/09/01 07:56:00;;;;;;;0.47;0.17;;;;;;;7.53;89.61;100526.50;10574977;28;20048;-78
2022/09/01 08:01:17;;;;;;;0.30;0.28;;;;;;;7.54;89.03;100521.88;10584318;28;20497;-77
2022/09/01 08:06:23;;;;;;;0.30;0.30;;;;;;;7.55;88.78;100531.72;10617806;28;20043;-78
2022/09/01 08:11:28;;;;;;;0.98;0.35;;;;;;;7.57;88.32;100535.81;10548954;28;20039;-77
2022/09/01 08:16:31;;;;;;;1.92;0.30;;;;;;;7.57;88.70;100535.81;10542314;28;20040;-78
2022/09/01 08:21:36;;;;;;;1.27;0.40;;;;;;;7.61;89.91;100543.47;10559102;28;20418;-78
2022/09/01 08:26:42;;;;;;;0.67;0.40;;;;;;;7.70;89.54;100552.81;10559013;28;20048;-78
2022/09/01 08:31:47;;;;;;;0.25;0.15;;;;;;;7.76;89.43;100547.13;10569898;28;20036;-78
2022/09/01 08:36:50;;;;;;;0.70;0.38;;;;;;;7.80;90.36;100561.06;10572028;28;20047;-77
2022/09/01 08:41:57;;;;;;;0.47;0.47;;;;;;;7.77;90.06;100569.78;10574550;28;20502;-78
2022/09/01 08:47:03;;;;;;;1.85;0.35;;;;;;;7.74;90.84;100573.88;10578675;28;20040;-79
2022/09/01 08:52:14;;;;;;;1.58;0.45;;;;;;;7.76;91.21;100562.69;10557127;28;20145;-78
2022/09/01 08:57:26;;;;;;;0.20;0.20;;;;;;;7.77;90.93;100578.81;10488117;28;20516;-79
2022/09/01 09:02:59;;;;;;;0.73;0.50;;;;;;;7.77;90.91;100581.53;10518148;28;20040;-78
2022/09/01 09:08:41;;;;;;;1.55;0.43;;;;;;;7.77;91.30;100584.28;10533246;28;20051;-79
2022/09/01 09:13:58;;;;;;;1.08;0.43;;;;;;;7.80;91.14;100580.19;10538056;28;20048;-79
2022/09/01 09:19:09;;;;;;;0.73;0.35;;;;;;;7.82;91.02;100594.44;10582980;28;20047;-80
2022/09/01 09:24:51;;;;;;;1.88;0.40;;;;;;;7.70;90.19;100605.53;10572269;28;20059;-80
2022/09/01 09:29:58;;;;;;;0.30;0.30;;;;;;;7.65;90.13;100607.44;10572055;28;20418;-80
2022/09/01 09:35:21;;;;;;;1.55;0.40;;;;;;;7.64;90.86;100616.72;10583200;28;20035;-79
2022/09/01 09:40:25;;;;;;;1.00;0.30;;;;;;;7.57;91.04;100617.75;10568994;28;20036;-79
2022/09/01 09:45:29;;;;;;;2.15;0.50;;;;;;;7.63;90.37;100637.69;10571631;28;20040;-79
2022/09/01 09:50:34;;;;;;;2.40;0.57;;;;;;;7.60;91.15;100626.47;10572111;28;20063;-81
2022/09/01 09:55:54;;;;;;;1.58;0.35;;;;;;;7.63;90.40;100634.16;10570129;28;20044;-80
2022/09/01 10:01:05;;;;;;;0.22;0.20;;;;;;;7.71;90.71;100633.69;10570542;28;20067;-82
2022/09/01 10:06:13;;;;;;;1.65;0.35;;;;;;;7.87;90.69;100627.22;10569620;28;20032;-78
2022/09/01 10:11:36;;;;;;;0.63;0.28;;;;;;;7.90;91.21;100636.81;10536792;28;20387;-77
2022/09/01 10:16:39;;;;;;;0.40;0.40;;;;;;;7.92;90.30;100638.19;10568594;28;20512;-78
2022/09/01 10:21:43;;;;;;;0.63;0.40;;;;;;;7.93;90.17;100661.69;10552465;28;20054;-77
2022/09/01 10:26:50;;;;;;;0.55;0.30;;;;;;;7.90;89.31;100669.59;10536412;28;20040;-74
2022/09/01 10:31:54;;;;;;;1.15;0.35;;;;;;;7.88;88.62;100678.06;10562344;28;20058;-77
2022/09/01 10:36:57;;;;;;;1.67;0.43;;;;;;;7.83;89.54;100680.75;10569340;28;20048;-76
2022/09/01 10:42:06;;;;;;;1.95;0.43;;;;;;;7.78;90.01;100684.25;10568964;28;20078;-79
2022/09/01 10:47:11;;;;;;;0.30;0.30;;;;;;;7.75;90.45;100673.03;10570159;28;20051;-78
2022/09/01 10:52:41;;;;;;;0.82;0.60;;;;;;;7.74;90.93;100679.59;10567999;28;20048;-78
2022/09/01 10:57:51;;;;;;;0.52;0.38;;;;;;;7.74;90.42;100691.34;10566954;28;20044;-78
2022/09/01 11:03:17;;;;;;;0.20;0.20;;;;;;;7.70;89.52;100700.31;10569238;28;20040;-78
2022/09/01 11:08:28;;;;;;;0.50;0.30;;;;;;;7.69;88.78;100696.75;10572664;28;20040;-77
2022/09/01 11:13:50;;;;;;;0.77;0.32;;;;;;;7.72;89.86;100688.03;10581597;28;20513;-83
2022/09/01 11:18:53;;;;;;;0.45;0.15;;;;;;;7.76;88.80;100697.34;10575827;28;20036;-83
2022/09/01 11:24:33;;;;;;;0.30;0.30;;;;;;;7.78;89.57;100695.19;10553199;28;20044;-83
2022/09/01 11:29:55;;;;;;;0.82;0.68;;;;;;;7.77;89.71;100692.72;10567848;28;20448;-85
2022/09/01 11:34:59;;;;;;;0.52;0.40;;;;;;;7.76;90.66;100688.34;10544310;28;20051;-82
2022/09/01 11:40:06;;;;;;;1.75;0.40;;;;;;;7.82;91.15;100698.25;10569716;28;20544;-75
2022/09/01 11:45:19;;;;;;;0.82;0.60;;;;;;;7.88;92.36;100688.97;10549710;28;20036;-77
2022/09/01 11:50:25;;;;;;;0.98;0.63;;;;;;;7.98;92.48;100705.44;10556113;28;20300;-78
2022/09/01 11:55:36;;;;;;;2.03;0.93;;;;;;;8.10;93.10;100702.53;10563101;28;20050;-78
2022/09/01 12:00:40;;;;;;;2.17;0.60;;;;;;;8.15;93.75;100708.00;10567284;28;20525;-77
2022/09/01 12:05:45;;;;;;;1.52;0.50;;;;;;;8.19;93.43;100720.09;10547503;28;20046;-77
2022/09/01 12:10:47;;;;;;;1.60;0.52;;;;;;;8.18;92.36;100718.44;10569490;28;20052;-77
2022/09/01 12:15:56;;;;;;;0.60;0.40;;;;;;;8.19;91.38;100708.34;10560600;28;20533;-77
2022/09/01 12:21:03;;;;;;;1.92;0.57;;;;;;;8.20;91.19;100702.59;10559890;28;20040;-77
2022/09/01 12:26:11;;;;;;;1.80;0.55;;;;;;;8.23;90.99;100702.06;10531003;28;20533;-77
2022/09/01 12:31:15;;;;;;;0.93;0.40;;;;;;;8.28;91.12;100713.03;10522253;28;20028;-77
2022/09/01 12:36:20;;;;;;;0.65;0.50;;;;;;;8.31;90.71;100725.34;10575056;28;20036;-77
2022/09/01 12:41:35;;;;;;;1.02;0.50;;;;;;;8.28;90.54;100728.59;10573024;28;20430;-78
2022/09/01 12:46:42;;;;;;;2.65;1.00;;;;;;;8.24;90.35;100733.78;10539728;28;20052;-78
2022/09/01 12:51:46;;;;;;;3.90;1.07;;;;;;;8.22;89.53;100732.41;10571936;28;20052;-77
2022/09/01 12:56:50;;;;;;;2.05;0.50;;;;;;;8.20;90.21;100745.50;10587230;28;20051;-78
2022/09/01 13:01:52;;;;;;;5.13;0.65;;;;;;;8.16;89.62;100739.75;10573281;28;20040;-79
2022/09/01 13:06:59;;;;;;;1.13;0.40;;;;;;;8.11;89.22;100732.31;10575328;28;20039;-77
2022/09/01 13:12:15;;;;;;;0.47;0.47;;;;;;;8.15;88.67;100733.44;10571089;28;20040;-77
2022/09/01 13:17:18;;;;;;;1.25;0.52;;;;;;;8.21;89.28;100731.56;10567297;28;20498;-78
2022/09/01 13:22:20;;;;;;;1.65;0.68;;;;;;;8.29;90.58;100742.00;10570558;28;20506;-79
2022/09/01 13:27:22;;;;;;;1.30;0.70;;;;;;;8.40;91.01;100734.72;10578421;28;20067;-78
2022/09/01 13:32:24;;;;;;;6.18;1.15;;;;;;;8.41;91.39;100742.66;10590601;28;20040;-78
2022/09/01 13:37:27;;;;;;;1.35;0.45;;;;;;;8.42;90.76;100743.50;10570835;28;20502;-78
2022/09/01 13:42:29;;;;;;;0.45;0.40;;;;;;;8.43;90.03;100759.63;10551019;28;20417;-78
2022/09/01 13:47:31;;;;;;;0.52;0.40;;;;;;;8.46;89.96;100750.06;10573660;28;20514;-79
2022/09/01 13:52:34;;;;;;;7.78;0.60;;;;;;;8.49;90.08;100760.47;10572600;28;20044;-76
2022/09/01 13:57:37;;;;;;;1.55;0.70;;;;;;;8.46;90.28;100780.16;10574084;28;20040;-78
2022/09/01 14:02:41;;;;;;;0.47;0.40;;;;;;;8.38;88.73;100783.41;10574224;28;20044;-78
2022/09/01 14:07:44;;;;;;;1.05;0.50;;;;;;;8.33;88.19;100806.03;10552909;28;20043;-78
2022/09/01 14:12:51;;;;;;;4.63;2.10;;;;;;;8.17;87.37;100787.88;10570320;28;20598;-78
2022/09/01 14:17:56;;;;;;;1.17;0.40;;;;;;;8.09;88.26;100796.53;10570036;28;20040;-83
2022/09/01 14:22:59;;;;;;;1.13;0.40;;;;;;;8.03;87.89;100812.06;10569641;28;20044;-81
2022/09/01 14:28:01;;;;;;;1.20;0.40;;;;;;;8.02;87.92;100809.59;10569013;28;20047;-78
2022/09/01 14:33:04;;;;;;;1.45;0.60;;;;;;;8.05;88.42;100811.81;10569382;28;20046;-78
2022/09/01 14:38:07;;;;;;;1.35;0.60;;;;;;;8.04;88.77;100800.06;10571427;28;20040;-79
2022/09/01 14:43:14;;;;;;;1.17;0.40;;;;;;;8.06;88.79;100800.63;10550463;28;20052;-80
2022/09/01 14:48:18;;;;;;;1.23;0.45;;;;;;;8.06;88.69;100799.78;10526846;28;20052;-80
2022/09/01 14:53:20;;;;;;;1.98;0.65;;;;;;;8.04;88.13;100812.91;10534007;28;20494;-80
2022/09/01 14:58:27;;;;;;;0.70;0.50;;;;;;;8.01;88.77;100818.88;10567466;28;20047;-81
2022/09/01 15:03:29;;;;;;;2.47;0.65;;;;;;;7.98;89.45;100813.91;10569917;28;20040;-81
2022/09/01 15:08:32;;;;;;;2.40;0.70;;;;;;;7.99;90.25;100805.47;10570476;28;20059;-80
2022/09/01 15:14:03;;;;;;;0.80;0.60;;;;;;;7.99;89.89;100819.16;10569799;28;20040;-80
2022/09/01 15:19:08;;;;;;;0.77;0.60;;;;;;;8.05;90.25;100825.47;10541895;28;20048;-77
2022/09/01 15:24:11;;;;;;;0.80;0.40;;;;;;;8.00;90.74;100826.25;10545635;28;20043;-77
2022/09/01 15:29:17;;;;;;;1.13;0.50;;;;;;;7.95;90.35;100818.00;10568268;28;20055;-76
2022/09/01 15:34:19;;;;;;;1.23;0.50;;;;;;;7.95;89.22;100814.44;10568656;28;20032;-77
2022/09/01 15:39:21;;;;;;;0.70;0.70;;;;;;;7.97;89.44;100806.81;10551874;28;20118;-77
2022/09/01 15:44:24;;;;;;;2.35;0.70;;;;;;;8.01;90.24;100811.50;10563754;28;20048;-77
2022/09/01 15:49:26;;;;;;;1.77;0.65;;;;;;;8.03;90.80;100814.81;10566587;28;20063;-77
2022/09/01 15:54:28;;;;;;;2.75;0.90;;;;;;;8.03;89.26;100822.19;10566267;28;20457;-77
2022/09/01 15:59:31;;;;;;;1.85;0.70;;;;;;;8.01;88.76;100819.72;10571799;28;20043;-77
2022/09/01 16:04:34;;;;;;;1.27;0.60;;;;;;;7.96;87.58;100814.19;10575957;28;20040;-77
2022/09/01 16:09:36;;;;;;;0.73;0.60;;;;;;;7.93;87.55;100817.44;10576109;28;20051;-77
2022/09/01 16:14:39;;;;;;;0.80;0.45;;;;;;;7.90;87.45;100823.41;10558904;28;20036;-77
2022/09/01 16:19:44;;;;;;;0.70;0.50;;;;;;;7.88;87.09;100816.56;10576564;28;20044;-77
2022/09/01 16:24:49;;;;;;;2.92;0.50;;;;;;;7.87;87.08;100813.00;10554525;28;20052;-77
2022/09/01 16:29:55;;;;;;;0.98;0.60;;;;;;;7.83;87.88;100804.50;10575182;28;20516;-77
2022/09/01 16:34:57;;;;;;;0.98;0.70;;;;;;;7.86;88.28;100803.16;10574943;28;20046;-84
2022/09/01 16:40:15;;;;;;;1.35;0.82;;;;;;;7.85;88.39;100804.25;10571332;28;20052;-85
2022/09/01 16:45:21;;;;;;;;;;;;;;;7.85;89.38;100809.72;10551307;28;20047;-77
2022/09/01 16:50:30;;;;;;;1.35;0.80;;;;;;;7.83;89.94;100814.63;10573173;28;20301;-77
2022/09/01 16:55:54;;;;;;;1.48;0.80;;;;;;;7.77;89.23;100813.72;10573357;28;20044;-78
2022/09/01 17:01:09;;;;;;;2.22;0.80;;;;;;;7.75;89.94;100806.88;10559570;28;20040;-76
2022/09/01 17:06:19;;;;;;;2.30;0.80;;;;;;;7.73;89.60;100798.13;10554906;28;20059;-77
2022/09/01 17:11:33;;;;;;;1.00;0.70;;;;;;;7.68;89.46;100792.63;10552253;28;20048;-78
2022/09/01 17:16:41;;;;;;;3.13;1.00;;;;;;;7.66;89.08;100808.44;10568251;28;20036;-81
2022/09/01 17:21:52;;;;;;;0.80;0.80;;;;;;;7.64;89.83;100824.25;10569665;28;20387;-78
2022/09/01 17:27:01;;;;;;;1.65;0.95;;;;;;;7.67;88.95;100829.22;10568116;28;20036;-78
2022/09/01 17:32:10;;;;;;;0.90;0.45;;;;;;;7.64;88.52;100840.66;10570546;28;20391;-79
2022/09/01 17:37:38;;;;;;;0.85;0.57;;;;;;;7.59;89.23;100837.84;10570068;28;20039;-79
2022/09/01 17:42:48;;;;;;;0.95;0.30;;;;;;;7.53;89.57;100861.53;10568950;28;20039;-77
2022/09/01 17:48:03;;;;;;;0.88;0.80;;;;;;;7.48;89.47;100859.59;10553081;28;20040;-78
2022/09/01 17:53:35;;;;;;;1.90;0.50;;;;;;;7.40;90.94;100854.56;10568950;28;20043;-80
2022/09/01 17:58:44;;;;;;;0.93;0.55;;;;;;;7.29;90.96;100850.09;10573999;28;20051;-81
2022/09/01 18:03:50;;;;;;;1.02;0.93;;;;;;;7.22;91.28;100841.25;10583527;28;20043;-77
2022/09/01 18:08:55;;;;;;;0.95;0.55;;;;;;;7.19;91.62;100836.28;10572289;28;20049;-79
2022/09/01 18:14:18;;;;;;;1.25;0.63;;;;;;;7.19;92.92;100836.28;10569510;28;20031;-78
2022/09/01 18:19:23;;;;;;;0.95;0.57;;;;;;;7.18;92.78;100837.38;10559465;28;20044;-77
2022/09/01 18:24:50;;;;;;;0.75;0.60;;;;;;;7.22;93.00;100843.97;10545081;28;20413;-77
2022/09/01 18:29:52;;;;;;;1.02;0.65;;;;;;;7.23;93.64;100824.59;10552016;28;20036;-78
2022/09/01 18:35:12;;;;;;;1.55;0.90;;;;;;;7.24;94.23;100837.16;10569086;28;20776;-78
2022/09/01 18:40:33;;;;;;;0.63;0.60;;;;;;;7.24;93.91;100833.63;10549963;28;20055;-77
2022/09/01 18:45:57;;;;;;;0.88;0.50;;;;;;;7.22;94.28;100824.88;10568568;28;20035;-78
2022/09/01 18:51:30;;;;;;;0.55;0.55;;;;;;;7.24;93.79;100830.88;10534464;28;20062;-79
2022/09/01 18:56:42;;;;;;;1.25;0.68;;;;;;;7.24;94.16;100826.25;10567037;28;20048;-78
2022/09/01 19:01:53;;;;;;;1.50;0.70;;;;;;;7.26;93.62;100828.72;10569754;28;20052;-78
2022/09/01 19:07:07;;;;;;;1.77;0.47;;;;;;;7.26;94.38;100831.47;10567778;28;20047;-77
2022/09/01 19:12:25;;;;;;;0.82;0.50;;;;;;;7.26;94.13;100826.81;10551610;28;20040;-77
2022/09/01 19:17:45;;;;;;;2.08;0.60;;;;;;;7.26;94.13;100817.81;10561636;28;20031;-78
2022/09/01 19:22:59;;;;;;;3.33;0.60;;;;;;;7.23;94.05;100810.13;10552328;28;20406;-78
2022/09/01 19:28:10;;;;;;;0.93;0.50;;;;;;;7.18;94.02;100823.72;10569753;28;20074;-78
2022/09/01 19:33:24;;;;;;;2.60;0.70;;;;;;;7.17;93.64;100816.63;10550918;28;20051;-78
2022/09/01 19:38:32;;;;;;;1.00;0.60;;;;;;;7.18;93.88;100821.81;10567677;28;20040;-78
2022/09/01 19:43:37;;;;;;;3.15;0.70;;;;;;;7.19;93.68;100828.09;10571763;28;20058;-78
2022/09/01 19:48:48;;;;;;;2.35;0.70;;;;;;;7.23;93.56;100821.88;10574990;28;20035;-78
2022/09/01 19:54:15;;;;;;;1.23;0.52;;;;;;;7.22;93.26;100824.88;10561983;28;20040;-78
2022/09/01 19:59:37;;;;;;;4.15;0.50;;;;;;;7.21;93.17;100818.59;10566095;28;20043;-76
2022/09/01 20:05:03;;;;;;;0.98;0.55;;;;;;;7.18;93.06;100826.47;10583353;28;20044;-78
2022/09/01 20:10:26;;;;;;;3.70;0.50;;;;;;;7.16;92.76;100829.44;10557419;28;20502;-78
2022/09/01 20:15:39;;;;;;;2.65;0.52;;;;;;;7.18;92.68;100837.38;10564772;28;20078;-78
2022/09/01 20:20:45;;;;;;;0.65;0.55;;;;;;;7.19;91.58;100833.56;10577610;28;20044;-78
2022/09/01 20:26:04;;;;;;;1.23;0.75;;;;;;;7.18;91.29;100830.00;10566428;28;20052;-78
2022/09/01 20:31:15;;;;;;;0.38;0.30;;;;;;;7.15;91.47;100821.50;10560089;28;20477;-79
2022/09/01 20:36:34;;;;;;;2.45;0.60;;;;;;;7.14;91.62;100822.59;10571398;28;20497;-79
2022/09/01 20:41:55;;;;;;;0.82;0.60;;;;;;;7.12;91.46;100822.03;10569768;28;20035;-77
2022/09/01 20:46:57;;;;;;;1.23;0.55;;;;;;;7.11;91.39;100814.88;10553277;28;20035;-79
2022/09/01 20:52:19;;;;;;;1.20;0.30;;;;;;;7.06;91.36;100812.94;10572557;28;20490;-76
2022/09/01 20:57:37;;;;;;;0.30;0.20;;;;;;;7.01;90.97;100810.16;10586157;28;20044;-76
2022/09/01 21:02:45;;;;;;;0.80;0.45;;;;;;;7.02;90.90;100814.53;10578497;28;20039;-80
2022/09/01 21:08:08;;;;;;;0.28;0.28;;;;;;;6.98;90.35;100826.19;10562016;28;20060;-82
2022/09/01 21:13:19;;;;;;;0.85;0.35;;;;;;;6.98;91.08;100824.31;10566554;28;20043;-86
2022/09/01 21:18:51;;;;;;;1.23;0.50;;;;;;;7.01;90.85;100829.25;10589547;28;20033;-85
2022/09/01 21:23:53;;;;;;;0.57;0.47;;;;;;;7.02;90.73;100833.63;10534878;28;20043;-87
2022/09/01 21:28:57;;;;;;;0.90;0.45;;;;;;;6.97;91.31;100830.84;10574037;28;20046;-86
2022/09/01 21:33:59;;;;;;;0.30;0.30;;;;;;;6.92;90.33;100828.00;10576406;28;20055;-86
2022/09/01 21:39:01;;;;;;;0.70;0.40;;;;;;;6.93;90.46;100827.75;10590799;27;20067;-86
2022/09/01 21:44:04;;;;;;;3.85;0.40;;;;;;;6.94;90.13;100826.72;10572931;28;20036;-84
2022/09/01 21:49:06;;;;;;;0.55;0.50;;;;;;;6.93;90.19;100818.75;10593112;28;20059;-85
2022/09/01 21:54:08;;;;;;;1.05;0.60;;;;;;;6.92;89.87;100826.13;10575195;28;20028;-85
2022/09/01 21:59:12;;;;;;;0.73;0.50;;;;;;;6.90;90.66;100825.53;10575066;28;20036;-85
2022/09/01 22:04:16;;;;;;;0.45;0.30;;;;;;;6.89;89.95;100825.81;10554378;28;20051;-85
2022/09/01 22:09:19;;;;;;;1.73;0.30;;;;;;;6.86;90.64;100829.84;10573154;28;20040;-85
2022/09/01 22:14:51;;;;;;;0.30;0.30;;;;;;;6.84;89.58;100837.47;10579684;28;20447;-84
2022/09/01 22:19:53;;;;;;;0.30;0.30;;;;;;;6.85;89.36;100824.66;10563738;28;20632;-83
2022/09/01 22:25:22;;;;;;;1.25;0.40;;;;;;;6.82;89.64;100828.72;10585120;28;20055;-84
2022/09/01 22:30:25;;;;;;;0.30;0.30;;;;;;;6.82;89.42;100827.91;10579941;28;20418;-83
2022/09/01 22:35:31;;;;;;;1.48;0.40;;;;;;;6.82;89.71;100820.53;10606552;28;20046;-83
2022/09/01 22:40:34;;;;;;;0.63;0.40;;;;;;;6.83;89.73;100829.53;10580923;28;20051;-82
2022/09/01 22:45:40;;;;;;;0.30;0.30;;;;;;;6.83;89.01;100824.91;10569797;28;20555;-82
2022/09/01 22:50:43;;;;;;;0.70;0.40;;;;;;;6.82;88.60;100817.81;10570251;28;20059;-82
2022/09/01 22:55:47;;;;;;;3.55;0.45;;;;;;;6.85;88.32;100827.38;10568541;28;20070;-81
2022/09/01 23:00:55;;;;;;;0.50;0.50;;;;;;;6.82;87.54;100820.53;10560635;28;20419;-81
2022/09/01 23:06:07;;;;;;;0.68;0.32;;;;;;;6.84;87.28;100832.03;10572498;28;20043;-82
2022/09/01 23:11:10;;;;;;;0.88;0.73;;;;;;;6.83;86.81;100822.19;10603090;28;20078;-81
2022/09/01 23:16:41;;;;;;;0.20;0.20;;;;;;;6.83;86.34;100833.09;10568977;28;20040;-81
2022/09/01 23:21:43;;;;;;;0.15;0.13;;;;;;;6.86;86.56;100831.75;10592223;28;20047;-81
2022/09/01 23:26:46;;;;;;;0.28;0.28;;;;;;;6.88;86.38;100838.63;10590168;28;20051;-80
2022/09/01 23:31:49;;;;;;;0.20;0.20;;;;;;;6.88;86.58;100848.69;10581691;28;20050;-81
2022/09/01 23:36:51;;;;;;;0.13;0.13;;;;;;;6.87;86.43;100852.50;10598726;28;20718;-81
2022/09/01 23:41:53;;;;;;;0.32;0.28;;;;;;;6.89;86.18;100850.34;10584045;28;20052;-81
2022/09/01 23:46:55;;;;;;;0.13;0.13;;;;;;;6.90;85.92;100854.72;10598957;28;20054;-81
2022/09/01 23:51:58;;;;;;;1.58;0.10;;;;;;;6.92;85.29;100860.75;10586140;28;20043;-81
2022/09/01 23:57:00;;;;;;;0.43;0.20;;;;;;;6.94;85.89;100861.31;10577406;28;20517;-81
